Yur'yev-Pol'skiy, Russia
Current Conditions -  °F | °C
As of 2:30 PM on Friday 24 Oct 2014 (Local Time) from UUEE Reporting Station
Clear Clear  
Wind Chill: 21°   Ceiling: Unl
Heat Index: 30°   Visibility: 6mi
Dew Point: 14°   Wind: 11mph
Humidity: 51%   Direction: 340°NNW
Pressure: 30.56"   Gusts: NA
Location:  56.3°N, 39.41°E
Report Text: UUEE 241130Z 34005MPS CAVOK M01/M10 Q1035 07000062 57150151NOSIG
Loading
Personal Weather Stations






























Interactive Weather Map
Tropical Storm Tracking
New forecast layout! Learn more

10-Day Weather Forecast

Advertisements
Track Severe Weather on mobile